Alexandria, New Hampshire
Current Conditions -  °F | °C
As of 11:15 PM on Sunday 25 Jan 2015 (Local Time) from K1P1 Reporting Station
Clear Clear  
Wind Chill: -2°   Ceiling: Unl
Heat Index:   Visibility: 10mi
Dew Point: -1°   Wind: 6mph
Humidity: 68%   Direction: 260°W
Pressure: 30.02"   Gusts: NA
Location:  43.6264°N, 71.7826°W
Report Text: K1P1 260415Z AUTO 26005KT 10SM CLR M13/M18 A3002 RMK AO2 T11351183
Loading
Personal Weather Stations






























Interactive Weather Map New forecast layout! Learn more

10-Day Weather Forecast

Advertisements
Track Severe Weather on mobile